createdAt,value
2018-12-26T00:00:24.131Z,21.51
2018-12-26T00:01:24.183Z,21.51
2018-12-26T00:02:24.137Z,20.93
2018-12-26T00:03:24.142Z,21.12
2018-12-26T00:04:24.141Z,21.51
2018-12-26T00:05:24.305Z,21.02
2018-12-26T00:06:24.155Z,21.51
2018-12-26T00:07:24.155Z,21.02
2018-12-26T00:08:24.155Z,21.02
2018-12-26T00:09:24.158Z,21.61
2018-12-26T00:10:24.159Z,21.61
2018-12-26T00:11:24.163Z,21.02
2018-12-26T00:12:24.164Z,21.51
2018-12-26T00:13:24.166Z,21.41
2018-12-26T00:14:24.169Z,21.51
2018-12-26T00:15:24.175Z,21.51
2018-12-26T00:16:24.179Z,21.51
2018-12-26T00:17:24.176Z,21.51
2018-12-26T00:18:24.316Z,20.93
2018-12-26T00:19:24.182Z,21.02
2018-12-26T00:20:24.190Z,21.12
2018-12-26T00:21:24.192Z,21.22
2018-12-26T00:22:24.193Z,21.12
2018-12-26T00:23:24.193Z,21.31
2018-12-26T00:24:24.197Z,21.22
2018-12-26T00:25:24.220Z,21.22
2018-12-26T00:26:24.251Z,20.93
2018-12-26T00:27:24.204Z,21.12
2018-12-26T00:28:24.206Z,21.12
2018-12-26T00:29:24.210Z,21.02
2018-12-26T00:30:24.211Z,21.12
2018-12-26T00:31:24.214Z,21.22
2018-12-26T00:32:24.217Z,21.22
2018-12-26T00:33:24.219Z,21.12
2018-12-26T00:34:24.221Z,21.12
2018-12-26T00:35:24.224Z,21.41
2018-12-26T00:36:24.227Z,21.41
2018-12-26T00:37:24.230Z,21.22
2018-12-26T00:38:24.232Z,21.31
2018-12-26T00:39:24.237Z,21.22
2018-12-26T00:40:24.239Z,21.02
2018-12-26T00:41:24.240Z,21.12
2018-12-26T00:42:24.243Z,21.02
2018-12-26T00:43:24.247Z,21.02
2018-12-26T00:44:24.249Z,21.12
2018-12-26T00:45:24.250Z,21.22
2018-12-26T00:46:24.254Z,21.12
2018-12-26T00:47:24.258Z,21.12
2018-12-26T00:48:24.259Z,21.31
2018-12-26T00:49:24.261Z,21.31
2018-12-26T00:50:24.264Z,21.31
2018-12-26T00:51:24.266Z,20.93
2018-12-26T00:52:24.269Z,21.31
2018-12-26T00:53:24.273Z,21.22
2018-12-26T00:54:24.275Z,21.31
2018-12-26T00:55:24.277Z,21.22
2018-12-26T00:56:24.281Z,21.31
2018-12-26T00:57:24.283Z,21.12
2018-12-26T00:58:24.285Z,21.22
2018-12-26T00:59:24.288Z,21.12
2018-12-26T01:00:24.291Z,21.22
2018-12-26T01:01:24.292Z,21.22
2018-12-26T01:02:24.296Z,21.12
2018-12-26T01:03:24.299Z,21.22
2018-12-26T01:04:24.309Z,21.02
2018-12-26T01:05:24.304Z,21.12
2018-12-26T01:06:24.307Z,21.12
2018-12-26T01:07:24.310Z,21.12
2018-12-26T01:08:24.315Z,21.02
2018-12-26T01:09:24.314Z,21.02
2018-12-26T01:10:24.317Z,21.22
2018-12-26T01:11:24.321Z,21.02
2018-12-26T01:12:24.323Z,21.22
2018-12-26T01:13:24.324Z,21.12
2018-12-26T01:14:24.334Z,21.12
2018-12-26T01:15:24.334Z,21.02
2018-12-26T01:16:24.333Z,21.02
2018-12-26T01:17:24.335Z,21.02
2018-12-26T01:18:24.358Z,21.02
2018-12-26T01:19:24.344Z,20.93
2018-12-26T01:20:24.344Z,21.02
2018-12-26T01:21:24.348Z,21.12
2018-12-26T01:22:24.348Z,21.12
2018-12-26T01:23:24.353Z,21.02
2018-12-26T01:24:24.364Z,21.12
2018-12-26T01:25:24.357Z,20.83
2018-12-26T01:26:24.358Z,21.02
2018-12-26T01:27:24.362Z,21.12
2018-12-26T01:28:24.365Z,21.12
2018-12-26T01:29:24.370Z,20.93
2018-12-26T01:30:24.370Z,20.83
2018-12-26T01:31:24.373Z,20.93
2018-12-26T01:32:24.376Z,20.93
2018-12-26T01:33:24.378Z,21.02
2018-12-26T01:34:24.382Z,20.93
2018-12-26T01:35:24.459Z,20.93
2018-12-26T01:36:24.385Z,20.73
2018-12-26T01:37:24.388Z,20.93
2018-12-26T01:38:24.394Z,20.93
2018-12-26T01:39:24.394Z,20.93
2018-12-26T01:40:24.397Z,20.93
2018-12-26T01:41:24.400Z,20.93
2018-12-26T01:42:24.402Z,20.83
2018-12-26T01:43:24.407Z,21.02
2018-12-26T01:44:24.414Z,20.93
2018-12-26T01:45:24.410Z,20.93
2018-12-26T01:46:24.411Z,20.83
2018-12-26T01:47:24.415Z,20.83
2018-12-26T01:48:24.418Z,20.93
2018-12-26T01:49:24.423Z,20.93
2018-12-26T01:50:24.424Z,20.83
2018-12-26T01:51:24.427Z,20.83
2018-12-26T01:52:24.429Z,20.83
2018-12-26T01:53:24.431Z,20.93
2018-12-26T01:54:24.434Z,20.93
2018-12-26T01:55:24.437Z,20.83
2018-12-26T01:56:28.142Z,20.83
2018-12-26T01:57:24.441Z,21.02
2018-12-26T01:58:24.448Z,20.93
2018-12-26T01:59:24.447Z,20.93
2018-12-26T02:00:24.455Z,20.93
2018-12-26T02:01:24.455Z,20.73
2018-12-26T02:02:24.455Z,20.83
2018-12-26T02:03:24.458Z,20.93
2018-12-26T02:04:24.461Z,20.83
2018-12-26T02:05:24.466Z,20.64
2018-12-26T02:06:24.465Z,20.93
2018-12-26T02:07:24.469Z,20.93
2018-12-26T02:08:24.471Z,20.83
2018-12-26T02:09:24.473Z,20.73
2018-12-26T02:10:24.477Z,20.73
2018-12-26T02:11:24.480Z,20.93
2018-12-26T02:12:24.480Z,20.93
2018-12-26T02:13:24.484Z,20.64
2018-12-26T02:14:24.489Z,20.83
2018-12-26T02:15:24.491Z,20.93
2018-12-26T02:16:24.492Z,20.64
2018-12-26T02:17:24.495Z,20.83
2018-12-26T02:18:24.496Z,20.83
2018-12-26T02:19:24.502Z,20.64
2018-12-26T02:20:24.503Z,20.64
2018-12-26T02:21:24.504Z,20.73
2018-12-26T02:22:24.510Z,20.82
2018-12-26T02:23:24.510Z,20.83
2018-12-26T02:24:24.626Z,20.73
2018-12-26T02:25:24.515Z,20.64
2018-12-26T02:26:24.518Z,20.64
2018-12-26T02:27:24.522Z,20.73
2018-12-26T02:28:24.524Z,20.83
2018-12-26T02:29:24.526Z,20.64
2018-12-26T02:30:24.529Z,20.73
2018-12-26T02:31:24.532Z,20.73
2018-12-26T02:32:24.535Z,20.73
2018-12-26T02:33:24.538Z,20.64
2018-12-26T02:34:24.541Z,20.73
2018-12-26T02:35:24.543Z,20.83
2018-12-26T02:36:24.545Z,20.73
2018-12-26T02:37:24.547Z,20.54
2018-12-26T02:38:24.550Z,20.64
2018-12-26T02:39:24.554Z,20.64
2018-12-26T02:40:24.556Z,20.54
2018-12-26T02:41:24.573Z,20.72
2018-12-26T02:42:24.562Z,20.64
2018-12-26T02:43:24.563Z,20.73
2018-12-26T02:44:24.567Z,20.83
2018-12-26T02:45:24.570Z,20.73
2018-12-26T02:46:24.573Z,20.83
2018-12-26T02:47:24.594Z,20.83
2018-12-26T02:48:24.580Z,20.73
2018-12-26T02:49:24.578Z,20.73
2018-12-26T02:50:24.582Z,21.12
2018-12-26T02:51:24.592Z,20.83
2018-12-26T02:52:24.588Z,21.12
2018-12-26T02:53:24.590Z,21.12
2018-12-26T02:54:24.594Z,20.44
2018-12-26T02:55:24.603Z,20.44
2018-12-26T02:56:24.601Z,20.44
2018-12-26T02:57:24.623Z,21.12
2018-12-26T02:58:24.604Z,21.12
2018-12-26T02:59:24.606Z,20.44
2018-12-26T03:00:24.608Z,20.44
2018-12-26T03:01:24.614Z,20.64
2018-12-26T03:02:24.613Z,20.44
2018-12-26T03:03:24.616Z,20.44
2018-12-26T03:04:24.620Z,20.54
2018-12-26T03:05:24.626Z,20.83
2018-12-26T03:06:24.624Z,20.64
2018-12-26T03:07:24.627Z,20.54
2018-12-26T03:08:24.704Z,20.54
2018-12-26T03:09:24.631Z,20.44
2018-12-26T03:10:24.635Z,20.54
2018-12-26T03:11:24.637Z,20.43
2018-12-26T03:12:24.640Z,20.44
2018-12-26T03:13:24.642Z,20.83
2018-12-26T03:14:24.647Z,20.54
2018-12-26T03:15:24.650Z,20.54
2018-12-26T03:16:24.658Z,20.82
2018-12-26T03:17:24.652Z,20.83
2018-12-26T03:18:24.656Z,20.83
2018-12-26T03:19:24.658Z,20.73
2018-12-26T03:20:24.661Z,20.73
2018-12-26T03:21:24.662Z,20.64
2018-12-26T03:22:24.666Z,20.64
2018-12-26T03:23:24.670Z,20.54
2018-12-26T03:24:24.671Z,20.64
2018-12-26T03:25:24.674Z,20.64
2018-12-26T03:26:24.685Z,20.54
2018-12-26T03:27:24.685Z,20.64
2018-12-26T03:28:24.682Z,20.64
2018-12-26T03:29:24.684Z,20.64
2018-12-26T03:30:24.687Z,20.64
2018-12-26T03:31:24.722Z,20.54
2018-12-26T03:32:24.702Z,20.64
2018-12-26T03:33:24.695Z,20.62
2018-12-26T03:34:24.697Z,20.64
2018-12-26T03:35:24.705Z,20.64
2018-12-26T03:36:24.703Z,20.64
2018-12-26T03:37:24.705Z,20.83
2018-12-26T03:38:24.709Z,20.43
2018-12-26T03:39:24.711Z,20.73
2018-12-26T03:40:24.713Z,20.34
2018-12-26T03:41:24.716Z,20.44
2018-12-26T03:42:24.718Z,20.83
2018-12-26T03:43:24.721Z,20.73
2018-12-26T03:44:24.732Z,20.54
2018-12-26T03:45:24.728Z,20.73
2018-12-26T03:46:24.730Z,20.64
2018-12-26T03:47:24.731Z,20.64
2018-12-26T03:48:24.735Z,20.44
2018-12-26T03:49:24.742Z,20.83
2018-12-26T03:50:24.748Z,20.34
2018-12-26T03:51:24.751Z,20.73
2018-12-26T03:52:24.746Z,20.44
2018-12-26T03:53:24.747Z,20.83
2018-12-26T03:54:24.750Z,20.34
2018-12-26T03:55:24.754Z,20.83
2018-12-26T03:56:24.768Z,20.34
2018-12-26T03:57:24.758Z,20.34
2018-12-26T03:58:24.760Z,20.73
2018-12-26T03:59:24.763Z,20.64
2018-12-26T04:00:24.775Z,20.73
2018-12-26T04:01:24.775Z,20.73
2018-12-26T04:02:24.777Z,20.54
2018-12-26T04:03:24.779Z,20.64
2018-12-26T04:04:24.779Z,20.64
2018-12-26T04:05:24.779Z,20.93
2018-12-26T04:06:24.782Z,20.83
2018-12-26T04:07:24.785Z,20.83
2018-12-26T04:08:24.787Z,20.83
2018-12-26T04:09:24.789Z,20.73
2018-12-26T04:10:24.793Z,20.54
2018-12-26T04:11:24.797Z,20.73
2018-12-26T04:12:24.802Z,20.83
2018-12-26T04:13:24.801Z,20.93
2018-12-26T04:14:24.804Z,20.64
2018-12-26T04:15:24.817Z,20.54
2018-12-26T04:16:24.809Z,20.54
2018-12-26T04:17:24.811Z,20.83
2018-12-26T04:18:24.813Z,20.54
2018-12-26T04:19:24.816Z,20.54
2018-12-26T04:20:24.820Z,20.83
2018-12-26T04:21:24.823Z,20.93
2018-12-26T04:22:24.825Z,20.54
2018-12-26T04:23:24.828Z,20.82
2018-12-26T04:24:24.835Z,20.93
2018-12-26T04:25:24.833Z,20.83
2018-12-26T04:26:24.836Z,20.73
2018-12-26T04:27:24.836Z,20.93
2018-12-26T04:28:24.843Z,20.73
2018-12-26T04:29:24.843Z,20.44
2018-12-26T04:30:24.845Z,20.64
2018-12-26T04:31:24.847Z,20.73
2018-12-26T04:32:24.851Z,20.73
2018-12-26T04:33:24.852Z,20.64
2018-12-26T04:34:24.859Z,20.83
2018-12-26T04:35:24.859Z,20.54
2018-12-26T04:36:24.861Z,20.54
2018-12-26T04:37:24.862Z,20.73
2018-12-26T04:38:24.866Z,20.64
2018-12-26T04:39:24.869Z,20.93
2018-12-26T04:40:24.870Z,20.82
2018-12-26T04:41:24.873Z,20.64
2018-12-26T04:42:24.884Z,20.44
2018-12-26T04:43:24.877Z,20.34
2018-12-26T04:44:24.882Z,20.44
2018-12-26T04:45:24.884Z,20.83
2018-12-26T04:46:24.886Z,20.54
2018-12-26T04:47:24.891Z,20.64
2018-12-26T04:48:24.894Z,20.34
2018-12-26T04:49:24.896Z,20.44
2018-12-26T04:50:24.900Z,20.44
2018-12-26T04:51:24.900Z,20.34
2018-12-26T04:52:24.903Z,20.44
2018-12-26T04:53:24.911Z,20.44
2018-12-26T04:54:24.912Z,20.34
2018-12-26T04:55:24.913Z,20.44
2018-12-26T04:56:24.914Z,20.44
2018-12-26T04:57:25.245Z,20.44
2018-12-26T04:58:24.918Z,20.34
2018-12-26T04:59:24.923Z,20.34
2018-12-26T05:00:24.924Z,20.25
2018-12-26T05:01:24.927Z,20.34
2018-12-26T05:02:24.929Z,20.25
2018-12-26T05:03:24.931Z,20.44
2018-12-26T05:04:24.934Z,20.34
2018-12-26T05:05:24.937Z,20.54
2018-12-26T05:06:24.942Z,20.25
2018-12-26T05:07:24.942Z,20.44
2018-12-26T05:08:24.947Z,20.34
2018-12-26T05:09:24.949Z,20.34
2018-12-26T05:10:24.949Z,20.24
2018-12-26T05:11:24.955Z,20.34
2018-12-26T05:12:24.955Z,20.34
2018-12-26T05:13:24.957Z,20.34
2018-12-26T05:14:24.961Z,20.24
2018-12-26T05:15:24.962Z,20.25
2018-12-26T05:16:24.968Z,20.34
2018-12-26T05:17:24.968Z,20.15
2018-12-26T05:18:24.979Z,20.15
2018-12-26T05:19:25.012Z,20.15
2018-12-26T05:20:24.976Z,20.04
2018-12-26T05:21:24.978Z,20.06
2018-12-26T05:22:24.985Z,20.15
2018-12-26T05:23:24.990Z,20.14
2018-12-26T05:24:24.993Z,20.15
2018-12-26T05:25:24.991Z,20.15
2018-12-26T05:26:24.993Z,19.96
2018-12-26T05:27:33.984Z,19.96
2018-12-26T05:28:25.007Z,19.96
2018-12-26T05:29:25.003Z,20.06
2018-12-26T05:30:25.006Z,20.25
2018-12-26T05:31:25.007Z,20.25
2018-12-26T05:32:25.008Z,20.25
2018-12-26T05:33:25.010Z,19.96
2018-12-26T05:34:25.013Z,19.95
2018-12-26T05:35:25.014Z,20.15
2018-12-26T05:36:25.018Z,19.86
2018-12-26T05:37:25.021Z,20.06
2018-12-26T05:38:25.029Z,20.15
2018-12-26T05:39:25.027Z,20.06
2018-12-26T05:40:25.089Z,20.06
2018-12-26T05:41:25.031Z,20.04
2018-12-26T05:42:25.035Z,20.06
2018-12-26T05:43:25.036Z,20.06
2018-12-26T05:44:25.039Z,20.15
2018-12-26T05:45:25.041Z,20.15
2018-12-26T05:46:25.042Z,20.06
2018-12-26T05:47:25.046Z,20.06
2018-12-26T05:48:25.049Z,20.14
2018-12-26T05:49:25.053Z,20.14
2018-12-26T05:50:25.054Z,20.06
2018-12-26T05:51:25.056Z,20.15
2018-12-26T05:52:25.060Z,20.25
2018-12-26T05:53:25.068Z,20.15
2018-12-26T05:54:25.068Z,20.24
2018-12-26T05:55:25.068Z,20.25
2018-12-26T05:56:25.077Z,20.25
2018-12-26T05:57:25.078Z,20.43
2018-12-26T05:58:25.078Z,20.25
2018-12-26T05:59:25.082Z,20.25
2018-12-26T06:00:25.081Z,19.76
2018-12-26T06:01:25.083Z,19.76
2018-12-26T06:02:25.086Z,20.25
2018-12-26T06:03:25.088Z,20.25
2018-12-26T06:04:25.092Z,19.76
2018-12-26T06:05:25.093Z,19.76
2018-12-26T06:06:25.095Z,20.14
2018-12-26T06:07:25.099Z,19.67
2018-12-26T06:08:25.101Z,19.76
2018-12-26T06:09:25.104Z,19.76
2018-12-26T06:10:25.106Z,19.76
2018-12-26T06:11:25.110Z,19.85
2018-12-26T06:12:25.116Z,19.76
2018-12-26T06:13:25.114Z,19.76
2018-12-26T06:14:25.118Z,19.86
2018-12-26T06:15:25.120Z,19.75
2018-12-26T06:16:25.122Z,19.76
2018-12-26T06:17:25.125Z,19.86
2018-12-26T06:18:25.127Z,19.76
2018-12-26T06:19:25.132Z,19.86
2018-12-26T06:20:25.134Z,19.96
2018-12-26T06:21:25.135Z,19.86
2018-12-26T06:22:25.139Z,19.96
2018-12-26T06:23:25.141Z,19.86
2018-12-26T06:24:25.143Z,19.76
2018-12-26T06:25:25.145Z,19.86
2018-12-26T06:26:25.149Z,19.86
2018-12-26T06:27:25.155Z,19.76
2018-12-26T06:28:25.153Z,19.86
2018-12-26T06:29:25.155Z,19.86
2018-12-26T06:30:25.159Z,19.86
2018-12-26T06:31:25.161Z,19.95
2018-12-26T06:32:25.165Z,19.96
2018-12-26T06:33:25.167Z,19.76
2018-12-26T06:34:25.169Z,19.76
2018-12-26T06:35:25.171Z,19.86
2018-12-26T06:36:25.174Z,19.76
2018-12-26T06:37:25.176Z,19.86
2018-12-26T06:38:25.179Z,19.76
2018-12-26T06:39:25.182Z,19.76
2018-12-26T06:40:25.186Z,19.86
2018-12-26T06:41:25.186Z,20.25
2018-12-26T06:42:25.189Z,19.86
2018-12-26T06:43:25.192Z,19.85
2018-12-26T06:44:25.198Z,19.86
2018-12-26T06:45:25.197Z,19.86
2018-12-26T06:46:25.200Z,19.86
2018-12-26T06:47:25.204Z,19.86
2018-12-26T06:48:25.207Z,19.85
2018-12-26T06:49:25.207Z,19.76
2018-12-26T06:50:25.210Z,19.75
2018-12-26T06:51:25.215Z,19.86
2018-12-26T06:52:25.216Z,19.76
2018-12-26T06:53:25.218Z,19.85
2018-12-26T06:54:25.220Z,19.86
2018-12-26T06:55:25.224Z,19.86
2018-12-26T06:56:25.228Z,19.95
2018-12-26T06:57:25.228Z,19.76
2018-12-26T06:58:25.231Z,19.86
2018-12-26T06:59:25.238Z,19.86
2018-12-26T07:00:25.237Z,19.76
2018-12-26T07:01:25.239Z,19.76
2018-12-26T07:02:25.241Z,19.96
2018-12-26T07:03:26.156Z,19.85
2018-12-26T07:04:25.258Z,19.85
2018-12-26T07:05:25.249Z,19.76
2018-12-26T07:06:25.252Z,19.76
2018-12-26T07:07:25.256Z,19.85
2018-12-26T07:08:25.258Z,20.34
2018-12-26T07:09:25.261Z,20.25
2018-12-26T07:10:25.263Z,19.67
2018-12-26T07:11:25.267Z,19.67
2018-12-26T07:12:25.268Z,20.24
2018-12-26T07:13:25.272Z,19.75
2018-12-26T07:14:25.273Z,20.25
2018-12-26T07:15:25.277Z,20.25
2018-12-26T07:16:25.279Z,20.25
2018-12-26T07:17:25.280Z,20.25
2018-12-26T07:18:25.286Z,20.24
2018-12-26T07:19:25.419Z,20.34
2018-12-26T07:20:25.292Z,20.15
2018-12-26T07:21:25.291Z,20.25
2018-12-26T07:22:25.295Z,20.25
2018-12-26T07:23:25.298Z,20.25
2018-12-26T07:24:25.301Z,20.25
2018-12-26T07:25:25.305Z,20.06
2018-12-26T07:26:25.312Z,20.34
2018-12-26T07:27:25.314Z,20.15
2018-12-26T07:28:25.314Z,20.15
2018-12-26T07:29:25.316Z,20.25
2018-12-26T07:30:25.322Z,20.25
2018-12-26T07:31:25.321Z,20.25
2018-12-26T07:32:25.322Z,20.25
2018-12-26T07:33:25.323Z,20.25
2018-12-26T07:34:25.326Z,20.34
2018-12-26T07:35:25.329Z,20.34
2018-12-26T07:36:25.331Z,20.25
2018-12-26T07:37:25.333Z,20.25
2018-12-26T07:38:25.335Z,20.15
2018-12-26T07:39:25.339Z,20.25
2018-12-26T07:40:25.384Z,20.15
2018-12-26T07:41:25.345Z,20.15
2018-12-26T07:42:25.347Z,20.15
2018-12-26T07:43:25.351Z,20.06
2018-12-26T07:44:25.372Z,20.15
2018-12-26T07:45:25.356Z,20.15
2018-12-26T07:46:25.357Z,20.25
2018-12-26T07:47:25.360Z,20.06
2018-12-26T07:48:25.362Z,20.15
2018-12-26T07:49:25.364Z,20.15
2018-12-26T07:50:25.373Z,20.15
2018-12-26T07:51:25.374Z,20.15
2018-12-26T07:52:25.373Z,20.25
2018-12-26T07:53:25.375Z,20.15
2018-12-26T07:54:25.380Z,20.06
2018-12-26T07:55:25.381Z,20.15
2018-12-26T07:56:25.384Z,20.25
2018-12-26T07:57:25.386Z,20.15
2018-12-26T07:58:25.388Z,20.25
2018-12-26T07:59:25.398Z,20.15
2018-12-26T08:00:25.397Z,20.06
2018-12-26T08:01:25.396Z,20.15
2018-12-26T08:02:25.399Z,20.15
2018-12-26T08:03:25.402Z,20.14
2018-12-26T08:04:25.411Z,20.15
2018-12-26T08:05:25.406Z,20.15
2018-12-26T08:06:25.414Z,20.15
2018-12-26T08:07:25.413Z,20.15
2018-12-26T08:08:25.415Z,20.14
2018-12-26T08:09:25.419Z,20.06
2018-12-26T08:10:25.421Z,20.04
2018-12-26T08:11:25.423Z,20.15
2018-12-26T08:12:25.426Z,20.25
2018-12-26T08:13:25.431Z,20.25
2018-12-26T08:14:25.430Z,20.15
2018-12-26T08:15:25.434Z,20.34
2018-12-26T08:16:25.437Z,20.25
2018-12-26T08:17:25.438Z,20.06
2018-12-26T08:18:25.441Z,20.25
2018-12-26T08:19:25.444Z,20.15
2018-12-26T08:20:25.449Z,20.25
2018-12-26T08:21:25.454Z,20.25
2018-12-26T08:22:25.454Z,20.15
2018-12-26T08:23:25.455Z,20.15
2018-12-26T08:24:25.476Z,20.25
2018-12-26T08:25:25.460Z,20.25
2018-12-26T08:26:25.460Z,20.15
2018-12-26T08:27:25.467Z,20.15
2018-12-26T08:28:26.781Z,20.15
2018-12-26T08:29:25.471Z,20.06
2018-12-26T08:30:25.472Z,20.15
2018-12-26T08:31:25.472Z,20.04
2018-12-26T08:32:25.479Z,20.06
2018-12-26T08:33:25.480Z,20.15
2018-12-26T08:34:25.484Z,20.06
2018-12-26T08:35:25.488Z,20.06
2018-12-26T08:36:25.492Z,20.15
2018-12-26T08:37:25.491Z,20.06
2018-12-26T08:38:25.541Z,20.06
2018-12-26T08:39:25.577Z,19.96
2018-12-26T08:40:25.500Z,20.06
2018-12-26T08:41:25.504Z,20.04
2018-12-26T08:42:25.508Z,20.06
2018-12-26T08:43:25.507Z,20.06
2018-12-26T08:44:25.511Z,20.06
2018-12-26T08:45:25.512Z,20.06
2018-12-26T08:46:25.515Z,20.06
2018-12-26T08:47:25.518Z,20.06
2018-12-26T08:48:25.522Z,20.06
2018-12-26T08:49:25.523Z,20.06
2018-12-26T08:50:25.526Z,20.06
2018-12-26T08:51:25.533Z,20.15
2018-12-26T08:52:25.531Z,19.96
2018-12-26T08:53:25.533Z,20.06
2018-12-26T08:54:25.536Z,19.86
2018-12-26T08:55:25.539Z,19.85
2018-12-26T08:56:25.541Z,20.06
2018-12-26T08:57:25.543Z,19.96
2018-12-26T08:58:25.548Z,20.06
2018-12-26T08:59:25.549Z,19.96
2018-12-26T09:00:25.552Z,20.06
2018-12-26T09:01:25.555Z,20.25
2018-12-26T09:02:25.557Z,19.96
2018-12-26T09:03:25.560Z,20.06
2018-12-26T09:04:25.563Z,20.06
2018-12-26T09:05:25.565Z,20.15
2018-12-26T09:06:25.617Z,20.15
2018-12-26T09:07:25.570Z,20.06
2018-12-26T09:08:25.573Z,20.25
2018-12-26T09:09:25.577Z,20.25
2018-12-26T09:10:25.578Z,20.34
2018-12-26T09:11:25.581Z,20.25
2018-12-26T09:12:25.586Z,20.34
2018-12-26T09:13:25.586Z,20.25
2018-12-26T09:14:25.616Z,20.15
2018-12-26T09:15:25.590Z,20.25
2018-12-26T09:16:25.606Z,20.25
2018-12-26T09:17:25.608Z,20.15
2018-12-26T09:18:25.613Z,20.25
2018-12-26T09:19:25.610Z,20.06
2018-12-26T09:20:25.608Z,20.15
2018-12-26T09:21:25.622Z,20.15
2018-12-26T09:22:25.609Z,20.15
2018-12-26T09:23:25.613Z,20.25
2018-12-26T09:24:25.613Z,20.25
2018-12-26T09:25:25.616Z,20.15
2018-12-26T09:26:25.622Z,20.25
2018-12-26T09:27:25.622Z,20.44
2018-12-26T09:28:25.625Z,20.34
2018-12-26T09:29:25.627Z,20.34
2018-12-26T09:30:25.631Z,20.25
2018-12-26T09:31:25.633Z,20.34
2018-12-26T09:32:25.637Z,20.25
2018-12-26T09:33:25.639Z,20.34
2018-12-26T09:34:25.639Z,20.44
2018-12-26T09:35:25.645Z,20.25
2018-12-26T09:36:25.647Z,20.25
2018-12-26T09:37:25.649Z,20.15
2018-12-26T09:38:25.650Z,20.15
2018-12-26T09:39:25.654Z,20.25
2018-12-26T09:40:25.656Z,20.34
2018-12-26T09:41:25.661Z,20.54
2018-12-26T09:42:25.661Z,20.44
2018-12-26T09:43:25.674Z,20.44
2018-12-26T09:44:25.667Z,20.44
2018-12-26T09:45:25.670Z,20.34
2018-12-26T09:46:25.696Z,20.44
2018-12-26T09:47:25.691Z,20.34
2018-12-26T09:48:25.692Z,20.44
2018-12-26T09:49:25.690Z,20.44
2018-12-26T09:50:25.693Z,20.44
2018-12-26T09:51:25.695Z,20.34
2018-12-26T09:52:25.695Z,20.44
2018-12-26T09:53:25.691Z,20.44
2018-12-26T09:54:25.695Z,20.44
2018-12-26T09:55:25.696Z,20.44
2018-12-26T09:56:25.701Z,20.34
2018-12-26T09:57:25.700Z,20.44
2018-12-26T09:58:25.703Z,20.54
2018-12-26T09:59:25.706Z,20.44
2018-12-26T10:00:25.710Z,20.34
2018-12-26T10:01:25.711Z,20.44
2018-12-26T10:02:25.714Z,20.54
2018-12-26T10:03:25.717Z,20.34
2018-12-26T10:04:25.720Z,20.34
2018-12-26T10:05:25.721Z,20.44
2018-12-26T10:06:25.724Z,20.54
2018-12-26T10:07:25.727Z,20.44
2018-12-26T10:08:25.730Z,20.44
2018-12-26T10:09:25.737Z,20.44
2018-12-26T10:10:25.738Z,20.64
2018-12-26T10:11:25.742Z,20.44
2018-12-26T10:12:25.742Z,20.34
2018-12-26T10:13:25.742Z,20.54
2018-12-26T10:14:25.745Z,20.44
2018-12-26T10:15:25.748Z,20.54
2018-12-26T10:16:25.753Z,20.34
2018-12-26T10:17:25.776Z,20.44
2018-12-26T10:18:25.756Z,20.44
2018-12-26T10:19:25.759Z,20.54
2018-12-26T10:20:25.762Z,20.34
2018-12-26T10:21:25.764Z,20.44
2018-12-26T10:22:25.823Z,20.44
2018-12-26T10:23:25.770Z,20.44
2018-12-26T10:24:25.772Z,20.44
2018-12-26T10:25:25.774Z,20.44
2018-12-26T10:26:25.777Z,20.54
2018-12-26T10:27:25.780Z,20.54
2018-12-26T10:28:25.783Z,20.34
2018-12-26T10:29:25.785Z,20.44
2018-12-26T10:30:25.788Z,20.44
2018-12-26T10:31:25.791Z,20.44
2018-12-26T10:32:25.793Z,20.44
2018-12-26T10:33:25.795Z,20.44
2018-12-26T10:34:25.798Z,20.54
2018-12-26T10:35:25.801Z,20.44
2018-12-26T10:36:25.804Z,20.44
2018-12-26T10:37:25.804Z,20.44
2018-12-26T10:38:25.808Z,20.54
2018-12-26T10:39:25.813Z,20.54
2018-12-26T10:40:25.815Z,20.73
2018-12-26T10:41:25.818Z,20.44
2018-12-26T10:42:25.819Z,20.73
2018-12-26T10:43:25.823Z,20.64
2018-12-26T10:44:25.825Z,20.54
2018-12-26T10:45:25.827Z,20.73
2018-12-26T10:46:25.829Z,20.93
2018-12-26T10:47:25.833Z,20.73
2018-12-26T10:48:25.836Z,20.64
2018-12-26T10:49:25.840Z,20.73
2018-12-26T10:50:25.841Z,20.93
2018-12-26T10:51:25.842Z,20.73
2018-12-26T10:52:25.846Z,20.93
2018-12-26T10:53:25.849Z,20.73
2018-12-26T10:54:25.851Z,20.73
2018-12-26T10:55:25.854Z,20.34
2018-12-26T10:56:25.856Z,20.83
2018-12-26T10:57:25.859Z,20.83
2018-12-26T10:58:25.861Z,20.44
2018-12-26T10:59:25.864Z,20.73
2018-12-26T11:00:25.867Z,20.44
2018-12-26T11:01:25.876Z,20.54
2018-12-26T11:02:25.874Z,20.83
2018-12-26T11:03:25.875Z,20.54
2018-12-26T11:04:25.880Z,20.73
2018-12-26T11:05:29.666Z,20.64
2018-12-26T11:06:25.884Z,20.73
2018-12-26T11:07:25.887Z,20.64
2018-12-26T11:08:25.915Z,20.54
2018-12-26T11:09:25.891Z,20.54
2018-12-26T11:10:25.895Z,20.54
2018-12-26T11:11:25.900Z,20.54
2018-12-26T11:12:25.899Z,20.54
2018-12-26T11:13:25.900Z,20.54
2018-12-26T11:14:25.904Z,20.64
2018-12-26T11:15:25.908Z,20.73
2018-12-26T11:16:25.910Z,20.64
2018-12-26T11:17:25.912Z,20.93
2018-12-26T11:18:25.915Z,20.64
2018-12-26T11:19:25.918Z,20.64
2018-12-26T11:20:25.921Z,20.64
2018-12-26T11:21:25.923Z,20.64
2018-12-26T11:22:25.931Z,20.54
2018-12-26T11:23:25.928Z,20.64
2018-12-26T11:24:25.935Z,20.54
2018-12-26T11:25:25.932Z,20.54
2018-12-26T11:26:25.936Z,20.64
2018-12-26T11:27:25.939Z,20.54
2018-12-26T11:28:25.942Z,20.64
2018-12-26T11:29:25.945Z,20.73
2018-12-26T11:30:25.952Z,20.64
2018-12-26T11:31:25.949Z,20.64
2018-12-26T11:32:25.952Z,20.54
2018-12-26T11:33:25.954Z,20.54
2018-12-26T11:34:25.957Z,20.64
2018-12-26T11:35:25.960Z,20.64
2018-12-26T11:36:25.971Z,20.64
2018-12-26T11:37:25.965Z,20.64
2018-12-26T11:38:25.968Z,20.54
2018-12-26T11:39:25.971Z,20.64
2018-12-26T11:40:25.974Z,20.54
2018-12-26T11:41:25.976Z,20.64
2018-12-26T11:42:25.979Z,20.64
2018-12-26T11:43:25.981Z,20.73
2018-12-26T11:44:25.986Z,20.64
2018-12-26T11:45:25.986Z,20.54
2018-12-26T11:46:25.990Z,20.64
2018-12-26T11:47:25.992Z,20.64
2018-12-26T11:48:25.995Z,20.64
2018-12-26T11:49:25.997Z,20.34
2018-12-26T11:50:26.001Z,20.44
2018-12-26T11:51:26.004Z,20.44
2018-12-26T11:52:26.005Z,20.44
2018-12-26T11:53:26.008Z,20.44
2018-12-26T11:54:26.011Z,21.02
2018-12-26T11:55:26.015Z,20.44
2018-12-26T11:56:26.017Z,20.54
2018-12-26T11:57:26.020Z,20.54
2018-12-26T11:58:26.020Z,20.44
2018-12-26T11:59:27.267Z,20.44
2018-12-26T12:00:26.027Z,20.44
2018-12-26T12:01:26.028Z,20.44
2018-12-26T12:02:26.031Z,20.44
2018-12-26T12:03:26.035Z,20.44
2018-12-26T12:04:26.040Z,20.44
2018-12-26T12:05:26.041Z,20.34
2018-12-26T12:06:26.045Z,21.12
2018-12-26T12:07:26.045Z,20.83
2018-12-26T12:08:26.050Z,20.83
2018-12-26T12:09:26.053Z,20.83
2018-12-26T12:10:26.053Z,20.83
2018-12-26T12:11:26.056Z,20.73
2018-12-26T12:12:26.060Z,20.73
2018-12-26T12:13:26.063Z,20.73
2018-12-26T12:14:26.065Z,20.54
2018-12-26T12:15:26.067Z,20.64
2018-12-26T12:16:26.069Z,20.73
2018-12-26T12:17:26.071Z,20.83
2018-12-26T12:18:26.074Z,20.64
2018-12-26T12:19:26.078Z,20.64
2018-12-26T12:20:26.080Z,20.54
2018-12-26T12:21:26.082Z,20.64
2018-12-26T12:22:26.087Z,20.64
2018-12-26T12:23:26.093Z,20.64
2018-12-26T12:24:26.095Z,20.73
2018-12-26T12:25:26.098Z,20.64
2018-12-26T12:26:28.327Z,20.64
2018-12-26T12:27:26.099Z,20.73
2018-12-26T12:28:26.101Z,20.73
2018-12-26T12:29:26.105Z,20.93
2018-12-26T12:30:26.117Z,20.83
2018-12-26T12:31:26.109Z,20.64
2018-12-26T12:32:26.113Z,20.73
2018-12-26T12:33:26.117Z,20.64
2018-12-26T12:34:26.117Z,20.64
2018-12-26T12:35:26.120Z,20.64
2018-12-26T12:36:26.123Z,20.64
2018-12-26T12:37:26.126Z,20.83
2018-12-26T12:38:26.127Z,20.64
2018-12-26T12:39:26.131Z,20.54
2018-12-26T12:40:26.133Z,20.83
2018-12-26T12:41:26.136Z,20.73
2018-12-26T12:42:26.141Z,20.83
2018-12-26T12:43:26.147Z,20.64
2018-12-26T12:44:26.149Z,20.83
2018-12-26T12:45:26.149Z,20.73
2018-12-26T12:46:26.150Z,20.83
2018-12-26T12:47:26.152Z,20.93
2018-12-26T12:48:26.155Z,20.64
2018-12-26T12:49:26.160Z,20.83
2018-12-26T12:50:26.159Z,20.83
2018-12-26T12:51:26.164Z,20.83
2018-12-26T12:52:26.166Z,20.93